Time;durP1;ratioP1;P1;durP2;ratioP2;P2;SDS_P1;SDS_P2;PMS_P1;PMS_P2;Temp;Humidity;BMP_temperature;BMP_pressure;BME280_temperature;BME280_humidity;BME280_pressure;Samples;Min_cycle;Max_cycle;Signal;HPM_P1;HPM_P2
2021/04/08 00:00:11;;;;;;;5.55;3.55;;;;;;;0.03;80.15234;95630.44;;;;
2021/04/08 00:01:13;;;;;;;5.55;3.55;;;;;;;0.03;80.15234;95630.44;;;;
2021/04/08 00:02:15;;;;;;;4.599999;3.6;;;;;;;0.06;80.07617;95624.8;;;;
2021/04/08 00:03:16;;;;;;;4.599999;3.6;;;;;;;0.06;80.07617;95624.8;;;;
2021/04/08 00:04:16;;;;;;;4.599999;3.6;;;;;;;0.06;80.07617;95624.8;;;;
2021/04/08 00:05:17;;;;;;;4.599999;3.6;;;;;;;0.06;80.07617;95624.8;;;;
2021/04/08 00:06:17;;;;;;;4.599999;3.6;;;;;;;0.06;80.07617;95624.8;;;;
2021/04/08 00:07:18;;;;;;;4.599999;3.6;;;;;;;0.06;80.07617;95624.8;;;;
2021/04/08 00:08:19;;;;;;;4.599999;3.6;;;;;;;0.06;80.07617;95624.8;;;;
2021/04/08 00:09:19;;;;;;;4.599999;3.6;;;;;;;0.06;80.07617;95624.8;;;;
2021/04/08 00:10:20;;;;;;;4.599999;3.6;;;;;;;0.06;80.07617;95624.8;;;;
2021/04/08 00:11:20;;;;;;;4.599999;3.6;;;;;;;0.06;80.07617;95624.8;;;;
2021/04/08 00:12:21;;;;;;;4;3.25;;;;;;;0.07;80.02344;95624.72;;;;
2021/04/08 00:13:21;;;;;;;4;3.25;;;;;;;0.07;80.02344;95624.72;;;;
2021/04/08 00:14:22;;;;;;;4;3.25;;;;;;;0.07;80.02344;95624.72;;;;
2021/04/08 00:15:23;;;;;;;4;3.25;;;;;;;0.07;80.02344;95624.72;;;;
2021/04/08 00:16:24;;;;;;;4;3.25;;;;;;;0.07;80.02344;95624.72;;;;
2021/04/08 00:17:24;;;;;;;4;3.25;;;;;;;0.07;80.02344;95624.72;;;;
2021/04/08 00:18:25;;;;;;;4;3.25;;;;;;;0.07;80.02344;95624.72;;;;
2021/04/08 00:19:26;;;;;;;4;3.25;;;;;;;0.07;80.02344;95624.72;;;;
2021/04/08 00:20:26;;;;;;;4;3.25;;;;;;;0.07;80.02344;95624.72;;;;
2021/04/08 00:21:27;;;;;;;4;3.25;;;;;;;0.07;80.02344;95624.72;;;;
2021/04/08 00:22:27;;;;;;;4;3.25;;;;;;;0.07;80.02344;95624.72;;;;
2021/04/08 00:23:28;;;;;;;4.85;3.35;;;;;;;0.02;79.93164;95623.97;;;;
2021/04/08 00:24:28;;;;;;;4.85;3.35;;;;;;;0.02;79.93164;95623.97;;;;
2021/04/08 00:25:29;;;;;;;4.85;3.35;;;;;;;0.02;79.93164;95623.97;;;;
2021/04/08 00:26:29;;;;;;;4.85;3.35;;;;;;;0.02;79.93164;95623.97;;;;
2021/04/08 00:27:30;;;;;;;4.85;3.35;;;;;;;0.02;79.93164;95623.97;;;;
2021/04/08 00:28:31;;;;;;;4.85;3.35;;;;;;;0.02;79.93164;95623.97;;;;
2021/04/08 00:29:31;;;;;;;4.85;3.35;;;;;;;0.02;79.93164;95623.97;;;;
2021/04/08 00:30:42;;;;;;;4.85;3.35;;;;;;;0.02;79.93164;95623.97;;;;
2021/04/08 00:31:43;;;;;;;4.85;3.35;;;;;;;0.02;79.93164;95623.97;;;;
2021/04/08 00:32:44;;;;;;;4.85;3.35;;;;;;;0.02;79.93164;95623.97;;;;
2021/04/08 00:33:44;;;;;;;5.750001;3.6;;;;;;;-0.04;79.7959;95627.2;;;;
2021/04/08 00:34:45;;;;;;;5.750001;3.6;;;;;;;-0.04;79.7959;95627.2;;;;
2021/04/08 00:35:45;;;;;;;5.750001;3.6;;;;;;;-0.04;79.7959;95627.2;;;;
2021/04/08 00:36:46;;;;;;;5.750001;3.6;;;;;;;-0.04;79.7959;95627.2;;;;
2021/04/08 00:37:46;;;;;;;5.750001;3.6;;;;;;;-0.04;79.7959;95627.2;;;;
2021/04/08 00:38:47;;;;;;;5.750001;3.6;;;;;;;-0.04;79.7959;95627.2;;;;
2021/04/08 00:39:48;;;;;;;5.750001;3.6;;;;;;;-0.04;79.7959;95627.2;;;;
2021/04/08 00:40:48;;;;;;;5.750001;3.6;;;;;;;-0.04;79.7959;95627.2;;;;
2021/04/08 00:41:49;;;;;;;5.750001;3.6;;;;;;;-0.04;79.7959;95627.2;;;;
2021/04/08 00:42:49;;;;;;;5.750001;3.6;;;;;;;-0.04;79.7959;95627.2;;;;
2021/04/08 00:43:50;;;;;;;5.750001;3.6;;;;;;;-0.04;79.7959;95627.2;;;;
2021/04/08 00:44:50;;;;;;;7.650001;3.45;;;;;;;-0.06;80.05273;95620.31;;;;
2021/04/08 00:45:51;;;;;;;7.650001;3.45;;;;;;;-0.06;80.05273;95620.31;;;;
2021/04/08 00:46:51;;;;;;;7.650001;3.45;;;;;;;-0.06;80.05273;95620.31;;;;
2021/04/08 00:47:52;;;;;;;7.650001;3.45;;;;;;;-0.06;80.05273;95620.31;;;;
2021/04/08 00:48:52;;;;;;;7.650001;3.45;;;;;;;-0.06;80.05273;95620.31;;;;
2021/04/08 00:49:53;;;;;;;7.650001;3.45;;;;;;;-0.06;80.05273;95620.31;;;;
2021/04/08 00:50:54;;;;;;;7.650001;3.45;;;;;;;-0.06;80.05273;95620.31;;;;
2021/04/08 00:51:54;;;;;;;7.650001;3.45;;;;;;;-0.06;80.05273;95620.31;;;;
2021/04/08 00:52:55;;;;;;;7.650001;3.45;;;;;;;-0.06;80.05273;95620.31;;;;
2021/04/08 00:53:58;;;;;;;7.650001;3.45;;;;;;;-0.06;80.05273;95620.31;;;;
2021/04/08 00:54:59;;;;;;;6.5;3.9;;;;;;;-0.07;79.86133;95615.14;;;;
2021/04/08 00:55:59;;;;;;;6.5;3.9;;;;;;;-0.07;79.86133;95615.14;;;;
2021/04/08 00:57:01;;;;;;;6.5;3.9;;;;;;;-0.07;79.86133;95615.14;;;;
2021/04/08 00:58:02;;;;;;;6.5;3.9;;;;;;;-0.07;79.86133;95615.14;;;;
2021/04/08 00:59:04;;;;;;;6.5;3.9;;;;;;;-0.07;79.86133;95615.14;;;;
2021/04/08 01:00:06;;;;;;;6.5;3.9;;;;;;;-0.07;79.86133;95615.14;;;;
2021/04/08 01:01:08;;;;;;;6.5;3.9;;;;;;;-0.07;79.86133;95615.14;;;;
2021/04/08 01:02:10;;;;;;;6.5;3.9;;;;;;;-0.07;79.86133;95615.14;;;;
2021/04/08 01:03:10;;;;;;;6.5;3.9;;;;;;;-0.07;79.86133;95615.14;;;;
2021/04/08 01:04:11;;;;;;;6.5;3.9;;;;;;;-0.07;79.86133;95615.14;;;;
2021/04/08 01:05:11;;;;;;;6.5;3.9;;;;;;;-0.07;79.86133;95615.14;;;;
2021/04/08 01:06:12;;;;;;;4.95;3.45;;;;;;;0.01;79.46094;95611.61;;;;
2021/04/08 01:07:13;;;;;;;4.95;3.45;;;;;;;0.01;79.46094;95611.61;;;;
2021/04/08 01:08:14;;;;;;;4.95;3.45;;;;;;;0.01;79.46094;95611.61;;;;
2021/04/08 01:09:15;;;;;;;4.95;3.45;;;;;;;0.01;79.46094;95611.61;;;;
2021/04/08 01:10:15;;;;;;;4.95;3.45;;;;;;;0.01;79.46094;95611.61;;;;
2021/04/08 01:11:18;;;;;;;4.95;3.45;;;;;;;0.01;79.46094;95611.61;;;;
2021/04/08 01:12:18;;;;;;;4.95;3.45;;;;;;;0.01;79.46094;95611.61;;;;
2021/04/08 01:13:19;;;;;;;4.95;3.45;;;;;;;0.01;79.46094;95611.61;;;;
2021/04/08 01:14:22;;;;;;;4.95;3.45;;;;;;;0.01;79.46094;95611.61;;;;
2021/04/08 01:15:23;;;;;;;4.95;3.45;;;;;;;0.01;79.46094;95611.61;;;;
2021/04/08 01:16:24;;;;;;;5.5;3.25;;;;;;;-0.01;79.01953;95600.73;;;;
2021/04/08 01:17:34;;;;;;;5.5;3.25;;;;;;;-0.01;79.01953;95600.73;;;;
2021/04/08 01:18:45;;;;;;;5.5;3.25;;;;;;;-0.01;79.01953;95600.73;;;;
2021/04/08 01:19:56;;;;;;;5.5;3.25;;;;;;;-0.01;79.01953;95600.73;;;;
2021/04/08 01:21:14;;;;;;;5.5;3.25;;;;;;;-0.01;79.01953;95600.73;;;;
2021/04/08 01:22:24;;;;;;;5.5;3.25;;;;;;;-0.01;79.01953;95600.73;;;;
2021/04/08 01:23:48;;;;;;;5.5;3.25;;;;;;;-0.01;79.01953;95600.73;;;;
2021/04/08 01:25:09;;;;;;;5.5;3.25;;;;;;;-0.01;79.01953;95600.73;;;;
2021/04/08 01:26:37;;;;;;;5.5;3.25;;;;;;;-0.01;79.01953;95600.73;;;;
2021/04/08 01:28:08;;;;;;;4.75;3.1;;;;;;;-0.03;78.98438;95609.84;;;;
2021/04/08 01:29:16;;;;;;;4.75;3.1;;;;;;;-0.03;78.98438;95609.84;;;;
2021/04/08 01:30:28;;;;;;;4.75;3.1;;;;;;;-0.03;78.98438;95609.84;;;;
2021/04/08 01:31:47;;;;;;;4.75;3.1;;;;;;;-0.03;78.98438;95609.84;;;;
2021/04/08 01:32:50;;;;;;;4.75;3.1;;;;;;;-0.03;78.98438;95609.84;;;;
2021/04/08 01:33:53;;;;;;;4.75;3.1;;;;;;;-0.03;78.98438;95609.84;;;;
2021/04/08 01:34:57;;;;;;;4.75;3.1;;;;;;;-0.03;78.98438;95609.84;;;;
2021/04/08 01:35:59;;;;;;;4.75;3.1;;;;;;;-0.03;78.98438;95609.84;;;;
2021/04/08 01:37:04;;;;;;;4.75;3.1;;;;;;;-0.03;78.98438;95609.84;;;;
2021/04/08 01:38:08;;;;;;;5.299999;2.6;;;;;;;0.06;78.80176;95615.08;;;;
2021/04/08 01:39:12;;;;;;;5.299999;2.6;;;;;;;0.06;78.80176;95615.08;;;;
2021/04/08 01:40:16;;;;;;;5.299999;2.6;;;;;;;0.06;78.80176;95615.08;;;;
2021/04/08 01:41:19;;;;;;;5.299999;2.6;;;;;;;0.06;78.80176;95615.08;;;;
2021/04/08 01:42:23;;;;;;;5.299999;2.6;;;;;;;0.06;78.80176;95615.08;;;;
2021/04/08 01:43:25;;;;;;;5.299999;2.6;;;;;;;0.06;78.80176;95615.08;;;;
2021/04/08 01:44:30;;;;;;;5.299999;2.6;;;;;;;0.06;78.80176;95615.08;;;;
2021/04/08 01:45:32;;;;;;;5.299999;2.6;;;;;;;0.06;78.80176;95615.08;;;;
2021/04/08 01:46:33;;;;;;;5.299999;2.6;;;;;;;0.06;78.80176;95615.08;;;;
2021/04/08 01:47:36;;;;;;;5.299999;2.6;;;;;;;0.06;78.80176;95615.08;;;;
2021/04/08 01:48:41;;;;;;;4.3;2.75;;;;;;;0.13;78.66992;95609.87;;;;
2021/04/08 01:49:45;;;;;;;4.3;2.75;;;;;;;0.13;78.66992;95609.87;;;;
2021/04/08 01:50:47;;;;;;;4.3;2.75;;;;;;;0.13;78.66992;95609.87;;;;
2021/04/08 01:51:54;;;;;;;4.3;2.75;;;;;;;0.13;78.66992;95609.87;;;;
2021/04/08 01:52:55;;;;;;;4.3;2.75;;;;;;;0.13;78.66992;95609.87;;;;
2021/04/08 01:53:58;;;;;;;4.3;2.75;;;;;;;0.13;78.66992;95609.87;;;;
2021/04/08 01:55:01;;;;;;;4.3;2.75;;;;;;;0.13;78.66992;95609.87;;;;
2021/04/08 01:56:03;;;;;;;4.3;2.75;;;;;;;0.13;78.66992;95609.87;;;;
2021/04/08 01:57:06;;;;;;;4.3;2.75;;;;;;;0.13;78.66992;95609.87;;;;
2021/04/08 01:58:10;;;;;;;4.3;2.75;;;;;;;0.13;78.66992;95609.87;;;;
2021/04/08 01:59:11;;;;;;;4.149999;2.5;;;;;;;0.1;78.41309;95609.37;;;;
2021/04/08 02:00:13;;;;;;;4.149999;2.5;;;;;;;0.1;78.41309;95609.37;;;;
2021/04/08 02:01:19;;;;;;;4.149999;2.5;;;;;;;0.1;78.41309;95609.37;;;;
2021/04/08 02:02:21;;;;;;;4.149999;2.5;;;;;;;0.1;78.41309;95609.37;;;;
2021/04/08 02:03:23;;;;;;;4.149999;2.5;;;;;;;0.1;78.41309;95609.37;;;;
2021/04/08 02:04:25;;;;;;;4.149999;2.5;;;;;;;0.1;78.41309;95609.37;;;;
2021/04/08 02:05:28;;;;;;;4.149999;2.5;;;;;;;0.1;78.41309;95609.37;;;;
2021/04/08 02:06:30;;;;;;;4.149999;2.5;;;;;;;0.1;78.41309;95609.37;;;;
2021/04/08 02:07:32;;;;;;;4.149999;2.5;;;;;;;0.1;78.41309;95609.37;;;;
2021/04/08 02:08:35;;;;;;;4.149999;2.5;;;;;;;0.1;78.41309;95609.37;;;;
2021/04/08 02:09:38;;;;;;;4.95;2.8;;;;;;;0.13;78.40918;95625.8;;;;
2021/04/08 02:10:40;;;;;;;4.95;2.8;;;;;;;0.13;78.40918;95625.8;;;;
2021/04/08 02:11:42;;;;;;;4.95;2.8;;;;;;;0.13;78.40918;95625.8;;;;
2021/04/08 02:12:46;;;;;;;4.95;2.8;;;;;;;0.13;78.40918;95625.8;;;;
2021/04/08 02:13:50;;;;;;;4.95;2.8;;;;;;;0.13;78.40918;95625.8;;;;
2021/04/08 02:14:50;;;;;;;4.95;2.8;;;;;;;0.13;78.40918;95625.8;;;;
2021/04/08 02:15:51;;;;;;;4.95;2.8;;;;;;;0.13;78.40918;95625.8;;;;
2021/04/08 02:16:52;;;;;;;4.95;2.8;;;;;;;0.13;78.40918;95625.8;;;;
2021/04/08 02:17:54;;;;;;;4.95;2.8;;;;;;;0.13;78.40918;95625.8;;;;
2021/04/08 02:18:57;;;;;;;4.95;2.8;;;;;;;0.13;78.40918;95625.8;;;;
2021/04/08 02:20:00;;;;;;;4.95;2.8;;;;;;;0.13;78.40918;95625.8;;;;
2021/04/08 02:21:05;;;;;;;3.75;2.45;;;;;;;0.12;78.51074;95617.1;;;;
2021/04/08 02:22:06;;;;;;;3.75;2.45;;;;;;;0.12;78.51074;95617.1;;;;
2021/04/08 02:23:07;;;;;;;3.75;2.45;;;;;;;0.12;78.51074;95617.1;;;;
2021/04/08 02:24:09;;;;;;;3.75;2.45;;;;;;;0.12;78.51074;95617.1;;;;
2021/04/08 02:25:11;;;;;;;3.75;2.45;;;;;;;0.12;78.51074;95617.1;;;;
2021/04/08 02:26:13;;;;;;;3.75;2.45;;;;;;;0.12;78.51074;95617.1;;;;
2021/04/08 02:27:16;;;;;;;3.75;2.45;;;;;;;0.12;78.51074;95617.1;;;;
2021/04/08 02:28:17;;;;;;;3.75;2.45;;;;;;;0.12;78.51074;95617.1;;;;
2021/04/08 02:29:19;;;;;;;3.75;2.45;;;;;;;0.12;78.51074;95617.1;;;;
2021/04/08 02:30:21;;;;;;;3.75;2.45;;;;;;;0.12;78.51074;95617.1;;;;
2021/04/08 02:31:25;;;;;;;3.85;2.6;;;;;;;0;78.5625;95623.21;;;;
2021/04/08 02:32:28;;;;;;;3.85;2.6;;;;;;;0;78.5625;95623.21;;;;
2021/04/08 02:33:30;;;;;;;3.85;2.6;;;;;;;0;78.5625;95623.21;;;;
2021/04/08 02:34:31;;;;;;;3.85;2.6;;;;;;;0;78.5625;95623.21;;;;
2021/04/08 02:35:31;;;;;;;3.85;2.6;;;;;;;0;78.5625;95623.21;;;;
2021/04/08 02:36:32;;;;;;;3.85;2.6;;;;;;;0;78.5625;95623.21;;;;
2021/04/08 02:37:33;;;;;;;3.85;2.6;;;;;;;0;78.5625;95623.21;;;;
2021/04/08 02:38:34;;;;;;;3.85;2.6;;;;;;;0;78.5625;95623.21;;;;
2021/04/08 02:39:36;;;;;;;3.85;2.6;;;;;;;0;78.5625;95623.21;;;;
2021/04/08 02:40:37;;;;;;;3.85;2.6;;;;;;;0;78.5625;95623.21;;;;
2021/04/08 02:41:37;;;;;;;3.35;2.45;;;;;;;0.08;78.54492;95625.05;;;;
2021/04/08 02:42:39;;;;;;;3.35;2.45;;;;;;;0.08;78.54492;95625.05;;;;
2021/04/08 02:43:40;;;;;;;3.35;2.45;;;;;;;0.08;78.54492;95625.05;;;;
2021/04/08 02:44:40;;;;;;;3.35;2.45;;;;;;;0.08;78.54492;95625.05;;;;
2021/04/08 02:45:41;;;;;;;3.35;2.45;;;;;;;0.08;78.54492;95625.05;;;;
2021/04/08 02:46:42;;;;;;;3.35;2.45;;;;;;;0.08;78.54492;95625.05;;;;
2021/04/08 02:47:43;;;;;;;3.35;2.45;;;;;;;0.08;78.54492;95625.05;;;;
2021/04/08 02:48:43;;;;;;;3.35;2.45;;;;;;;0.08;78.54492;95625.05;;;;
2021/04/08 02:49:44;;;;;;;3.35;2.45;;;;;;;0.08;78.54492;95625.05;;;;
2021/04/08 02:50:44;;;;;;;3.35;2.45;;;;;;;0.08;78.54492;95625.05;;;;
2021/04/08 02:51:50;;;;;;;3.35;2.45;;;;;;;0.08;78.54492;95625.05;;;;
2021/04/08 02:52:54;;;;;;;4.149999;2.45;;;;;;;0.23;78.04297;95632.22;;;;
2021/04/08 02:54:02;;;;;;;4.149999;2.45;;;;;;;0.23;78.04297;95632.22;;;;
2021/04/08 02:55:10;;;;;;;4.149999;2.45;;;;;;;0.23;78.04297;95632.22;;;;
2021/04/08 02:56:16;;;;;;;4.149999;2.45;;;;;;;0.23;78.04297;95632.22;;;;
2021/04/08 02:57:24;;;;;;;4.149999;2.45;;;;;;;0.23;78.04297;95632.22;;;;
2021/04/08 02:58:30;;;;;;;4.149999;2.45;;;;;;;0.23;78.04297;95632.22;;;;
2021/04/08 02:59:35;;;;;;;4.149999;2.45;;;;;;;0.23;78.04297;95632.22;;;;
2021/04/08 03:00:44;;;;;;;4.149999;2.45;;;;;;;0.23;78.04297;95632.22;;;;
2021/04/08 03:01:51;;;;;;;4.149999;2.45;;;;;;;0.23;78.04297;95632.22;;;;
2021/04/08 03:02:55;;;;;;;4.45;2.900001;;;;;;;0.27;77.66211;95645.58;;;;
2021/04/08 03:04:01;;;;;;;4.45;2.900001;;;;;;;0.27;77.66211;95645.58;;;;
2021/04/08 03:05:02;;;;;;;4.45;2.900001;;;;;;;0.27;77.66211;95645.58;;;;
2021/04/08 03:06:07;;;;;;;4.45;2.900001;;;;;;;0.27;77.66211;95645.58;;;;
2021/04/08 03:07:09;;;;;;;4.45;2.900001;;;;;;;0.27;77.66211;95645.58;;;;
2021/04/08 03:08:11;;;;;;;4.45;2.900001;;;;;;;0.27;77.66211;95645.58;;;;
2021/04/08 03:09:16;;;;;;;4.45;2.900001;;;;;;;0.27;77.66211;95645.58;;;;
2021/04/08 03:10:21;;;;;;;4.45;2.900001;;;;;;;0.27;77.66211;95645.58;;;;
2021/04/08 03:11:23;;;;;;;4.45;2.900001;;;;;;;0.27;77.66211;95645.58;;;;
2021/04/08 03:12:28;;;;;;;4.45;2.900001;;;;;;;0.27;77.66211;95645.58;;;;
2021/04/08 03:13:30;;;;;;;4.45;2.900001;;;;;;;0.27;77.66211;95645.58;;;;
2021/04/08 03:14:34;;;;;;;3.55;2.25;;;;;;;0.28;77.62207;95659.17;;;;
2021/04/08 03:15:39;;;;;;;3.55;2.25;;;;;;;0.28;77.62207;95659.17;;;;
2021/04/08 03:16:40;;;;;;;3.55;2.25;;;;;;;0.28;77.62207;95659.17;;;;
2021/04/08 03:17:42;;;;;;;3.55;2.25;;;;;;;0.28;77.62207;95659.17;;;;
2021/04/08 03:18:45;;;;;;;3.55;2.25;;;;;;;0.28;77.62207;95659.17;;;;
2021/04/08 03:19:49;;;;;;;3.55;2.25;;;;;;;0.28;77.62207;95659.17;;;;
2021/04/08 03:20:53;;;;;;;3.55;2.25;;;;;;;0.28;77.62207;95659.17;;;;
2021/04/08 03:21:55;;;;;;;3.55;2.25;;;;;;;0.28;77.62207;95659.17;;;;
2021/04/08 03:22:57;;;;;;;3.55;2.25;;;;;;;0.28;77.62207;95659.17;;;;
2021/04/08 03:24:02;;;;;;;3.55;2.25;;;;;;;0.28;77.62207;95659.17;;;;
2021/04/08 03:25:03;;;;;;;3.85;2.7;;;;;;;0.28;77.45605;95675.03;;;;
2021/04/08 03:26:06;;;;;;;3.85;2.7;;;;;;;0.28;77.45605;95675.03;;;;
2021/04/08 03:27:08;;;;;;;3.85;2.7;;;;;;;0.28;77.45605;95675.03;;;;
2021/04/08 03:28:10;;;;;;;3.85;2.7;;;;;;;0.28;77.45605;95675.03;;;;
2021/04/08 03:29:12;;;;;;;3.85;2.7;;;;;;;0.28;77.45605;95675.03;;;;
2021/04/08 03:30:14;;;;;;;3.85;2.7;;;;;;;0.28;77.45605;95675.03;;;;
2021/04/08 03:31:16;;;;;;;3.85;2.7;;;;;;;0.28;77.45605;95675.03;;;;
2021/04/08 03:32:19;;;;;;;3.85;2.7;;;;;;;0.28;77.45605;95675.03;;;;
2021/04/08 03:33:20;;;;;;;3.85;2.7;;;;;;;0.28;77.45605;95675.03;;;;
2021/04/08 03:34:22;;;;;;;3.85;2.7;;;;;;;0.28;77.45605;95675.03;;;;
2021/04/08 03:35:23;;;;;;;3.55;2.7;;;;;;;0.26;77.34668;95681.06;;;;
2021/04/08 03:36:25;;;;;;;3.55;2.7;;;;;;;0.26;77.34668;95681.06;;;;
2021/04/08 03:37:27;;;;;;;3.55;2.7;;;;;;;0.26;77.34668;95681.06;;;;
2021/04/08 03:38:28;;;;;;;3.55;2.7;;;;;;;0.26;77.34668;95681.06;;;;
2021/04/08 03:39:30;;;;;;;3.55;2.7;;;;;;;0.26;77.34668;95681.06;;;;
2021/04/08 03:40:31;;;;;;;3.55;2.7;;;;;;;0.26;77.34668;95681.06;;;;
2021/04/08 03:41:32;;;;;;;3.55;2.7;;;;;;;0.26;77.34668;95681.06;;;;
2021/04/08 03:42:36;;;;;;;3.55;2.7;;;;;;;0.26;77.34668;95681.06;;;;
2021/04/08 03:43:38;;;;;;;3.55;2.7;;;;;;;0.26;77.34668;95681.06;;;;
2021/04/08 03:44:40;;;;;;;3.55;2.7;;;;;;;0.26;77.34668;95681.06;;;;
2021/04/08 03:45:41;;;;;;;3.25;2.55;;;;;;;0.24;77.14551;95698.99;;;;
2021/04/08 03:46:42;;;;;;;3.25;2.55;;;;;;;0.24;77.14551;95698.99;;;;
2021/04/08 03:47:45;;;;;;;3.25;2.55;;;;;;;0.24;77.14551;95698.99;;;;
2021/04/08 03:48:46;;;;;;;3.25;2.55;;;;;;;0.24;77.14551;95698.99;;;;
2021/04/08 03:49:48;;;;;;;3.25;2.55;;;;;;;0.24;77.14551;95698.99;;;;
2021/04/08 03:50:50;;;;;;;3.25;2.55;;;;;;;0.24;77.14551;95698.99;;;;
2021/04/08 03:51:52;;;;;;;3.25;2.55;;;;;;;0.24;77.14551;95698.99;;;;
2021/04/08 03:52:53;;;;;;;3.25;2.55;;;;;;;0.24;77.14551;95698.99;;;;
2021/04/08 03:53:54;;;;;;;3.25;2.55;;;;;;;0.24;77.14551;95698.99;;;;
2021/04/08 03:54:56;;;;;;;3.25;2.55;;;;;;;0.24;77.14551;95698.99;;;;
2021/04/08 03:55:57;;;;;;;3.25;2.55;;;;;;;0.24;77.14551;95698.99;;;;
2021/04/08 03:56:57;;;;;;;6.55;2.65;;;;;;;0.15;77.05664;95696.81;;;;
2021/04/08 03:57:59;;;;;;;6.55;2.65;;;;;;;0.15;77.05664;95696.81;;;;
2021/04/08 03:59:03;;;;;;;6.55;2.65;;;;;;;0.15;77.05664;95696.81;;;;
2021/04/08 04:00:04;;;;;;;6.55;2.65;;;;;;;0.15;77.05664;95696.81;;;;
2021/04/08 04:01:06;;;;;;;6.55;2.65;;;;;;;0.15;77.05664;95696.81;;;;
2021/04/08 04:02:07;;;;;;;6.55;2.65;;;;;;;0.15;77.05664;95696.81;;;;
2021/04/08 04:03:09;;;;;;;6.55;2.65;;;;;;;0.15;77.05664;95696.81;;;;
2021/04/08 04:04:12;;;;;;;6.55;2.65;;;;;;;0.15;77.05664;95696.81;;;;
2021/04/08 04:05:14;;;;;;;6.55;2.65;;;;;;;0.15;77.05664;95696.81;;;;
2021/04/08 04:06:15;;;;;;;6.55;2.65;;;;;;;0.15;77.05664;95696.81;;;;
2021/04/08 04:07:17;;;;;;;6.150001;2.95;;;;;;;0.02;77.13672;95711.45;;;;
2021/04/08 04:08:17;;;;;;;6.150001;2.95;;;;;;;0.02;77.13672;95711.45;;;;
2021/04/08 04:09:18;;;;;;;6.150001;2.95;;;;;;;0.02;77.13672;95711.45;;;;
2021/04/08 04:10:21;;;;;;;6.150001;2.95;;;;;;;0.02;77.13672;95711.45;;;;
2021/04/08 04:11:22;;;;;;;6.150001;2.95;;;;;;;0.02;77.13672;95711.45;;;;
2021/04/08 04:12:23;;;;;;;6.150001;2.95;;;;;;;0.02;77.13672;95711.45;;;;
2021/04/08 04:13:24;;;;;;;6.150001;2.95;;;;;;;0.02;77.13672;95711.45;;;;
2021/04/08 04:14:25;;;;;;;6.150001;2.95;;;;;;;0.02;77.13672;95711.45;;;;
2021/04/08 04:15:27;;;;;;;6.150001;2.95;;;;;;;0.02;77.13672;95711.45;;;;
2021/04/08 04:16:29;;;;;;;6.150001;2.95;;;;;;;0.02;77.13672;95711.45;;;;
2021/04/08 04:17:30;;;;;;;6.150001;2.95;;;;;;;0.02;77.13672;95711.45;;;;
2021/04/08 04:18:32;;;;;;;7.2;3.2;;;;;;;0.02;77.12695;95714.2;;;;
2021/04/08 04:19:33;;;;;;;7.2;3.2;;;;;;;0.02;77.12695;95714.2;;;;
2021/04/08 04:20:33;;;;;;;7.2;3.2;;;;;;;0.02;77.12695;95714.2;;;;
2021/04/08 04:21:36;;;;;;;7.2;3.2;;;;;;;0.02;77.12695;95714.2;;;;
2021/04/08 04:22:36;;;;;;;7.2;3.2;;;;;;;0.02;77.12695;95714.2;;;;
2021/04/08 04:23:38;;;;;;;7.2;3.2;;;;;;;0.02;77.12695;95714.2;;;;
2021/04/08 04:24:39;;;;;;;7.2;3.2;;;;;;;0.02;77.12695;95714.2;;;;
2021/04/08 04:25:39;;;;;;;7.2;3.2;;;;;;;0.02;77.12695;95714.2;;;;
2021/04/08 04:26:40;;;;;;;7.2;3.2;;;;;;;0.02;77.12695;95714.2;;;;
2021/04/08 04:27:41;;;;;;;7.2;3.2;;;;;;;0.02;77.12695;95714.2;;;;
2021/04/08 04:28:41;;;;;;;5.299999;3.1;;;;;;;0.03;77.20117;95709.16;;;;
2021/04/08 04:29:42;;;;;;;5.299999;3.1;;;;;;;0.03;77.20117;95709.16;;;;
2021/04/08 04:30:43;;;;;;;5.299999;3.1;;;;;;;0.03;77.20117;95709.16;;;;
2021/04/08 04:31:43;;;;;;;5.299999;3.1;;;;;;;0.03;77.20117;95709.16;;;;
2021/04/08 04:32:44;;;;;;;5.299999;3.1;;;;;;;0.03;77.20117;95709.16;;;;
2021/04/08 04:33:44;;;;;;;5.299999;3.1;;;;;;;0.03;77.20117;95709.16;;;;
2021/04/08 04:34:45;;;;;;;5.299999;3.1;;;;;;;0.03;77.20117;95709.16;;;;
2021/04/08 04:35:46;;;;;;;5.299999;3.1;;;;;;;0.03;77.20117;95709.16;;;;
2021/04/08 04:36:47;;;;;;;5.299999;3.1;;;;;;;0.03;77.20117;95709.16;;;;
2021/04/08 04:37:48;;;;;;;5.299999;3.1;;;;;;;0.03;77.20117;95709.16;;;;
2021/04/08 04:38:50;;;;;;;5.299999;3.1;;;;;;;0.03;77.20117;95709.16;;;;
2021/04/08 04:39:50;;;;;;;4.9;2.95;;;;;;;-0.04;77.01074;95720.98;;;;
2021/04/08 04:40:51;;;;;;;4.9;2.95;;;;;;;-0.04;77.01074;95720.98;;;;
2021/04/08 04:41:51;;;;;;;4.9;2.95;;;;;;;-0.04;77.01074;95720.98;;;;
2021/04/08 04:42:52;;;;;;;4.9;2.95;;;;;;;-0.04;77.01074;95720.98;;;;
2021/04/08 04:43:52;;;;;;;4.9;2.95;;;;;;;-0.04;77.01074;95720.98;;;;
2021/04/08 04:44:53;;;;;;;4.9;2.95;;;;;;;-0.04;77.01074;95720.98;;;;
2021/04/08 04:45:53;;;;;;;4.9;2.95;;;;;;;-0.04;77.01074;95720.98;;;;
2021/04/08 04:46:54;;;;;;;4.9;2.95;;;;;;;-0.04;77.01074;95720.98;;;;
2021/04/08 04:47:56;;;;;;;4.9;2.95;;;;;;;-0.04;77.01074;95720.98;;;;
2021/04/08 04:48:56;;;;;;;4.9;2.95;;;;;;;-0.04;77.01074;95720.98;;;;
2021/04/08 04:49:57;;;;;;;3.6;2.8;;;;;;;0.04;77.05762;95741.82;;;;
2021/04/08 04:50:57;;;;;;;3.6;2.8;;;;;;;0.04;77.05762;95741.82;;;;
2021/04/08 04:51:58;;;;;;;3.6;2.8;;;;;;;0.04;77.05762;95741.82;;;;
2021/04/08 04:52:58;;;;;;;3.6;2.8;;;;;;;0.04;77.05762;95741.82;;;;
2021/04/08 04:53:59;;;;;;;3.6;2.8;;;;;;;0.04;77.05762;95741.82;;;;
2021/04/08 04:54:59;;;;;;;3.6;2.8;;;;;;;0.04;77.05762;95741.82;;;;
2021/04/08 04:56:00;;;;;;;3.6;2.8;;;;;;;0.04;77.05762;95741.82;;;;
2021/04/08 04:57:01;;;;;;;3.6;2.8;;;;;;;0.04;77.05762;95741.82;;;;
2021/04/08 04:58:01;;;;;;;3.6;2.8;;;;;;;0.04;77.05762;95741.82;;;;
2021/04/08 04:59:02;;;;;;;3.6;2.8;;;;;;;0.04;77.05762;95741.82;;;;
2021/04/08 05:00:02;;;;;;;3.6;2.8;;;;;;;0.04;77.05762;95741.82;;;;
2021/04/08 05:01:04;;;;;;;4.95;3;;;;;;;0.17;76.68457;95751.9;;;;
2021/04/08 05:02:05;;;;;;;4.95;3;;;;;;;0.17;76.68457;95751.9;;;;
2021/04/08 05:03:06;;;;;;;4.95;3;;;;;;;0.17;76.68457;95751.9;;;;
2021/04/08 05:04:06;;;;;;;4.95;3;;;;;;;0.17;76.68457;95751.9;;;;
2021/04/08 05:05:07;;;;;;;4.95;3;;;;;;;0.17;76.68457;95751.9;;;;
2021/04/08 05:06:08;;;;;;;4.95;3;;;;;;;0.17;76.68457;95751.9;;;;
2021/04/08 05:07:09;;;;;;;4.95;3;;;;;;;0.17;76.68457;95751.9;;;;
2021/04/08 05:08:09;;;;;;;4.95;3;;;;;;;0.17;76.68457;95751.9;;;;
2021/04/08 05:09:10;;;;;;;4.95;3;;;;;;;0.17;76.68457;95751.9;;;;
2021/04/08 05:10:10;;;;;;;4.95;3;;;;;;;0.17;76.68457;95751.9;;;;
2021/04/08 05:11:12;;;;;;;5.1;3.3;;;;;;;0.33;76.62988;95754.19;;;;
2021/04/08 05:12:12;;;;;;;5.1;3.3;;;;;;;0.33;76.62988;95754.19;;;;
2021/04/08 05:13:13;;;;;;;5.1;3.3;;;;;;;0.33;76.62988;95754.19;;;;
2021/04/08 05:14:13;;;;;;;5.1;3.3;;;;;;;0.33;76.62988;95754.19;;;;
2021/04/08 05:15:14;;;;;;;5.1;3.3;;;;;;;0.33;76.62988;95754.19;;;;
2021/04/08 05:16:15;;;;;;;5.1;3.3;;;;;;;0.33;76.62988;95754.19;;;;
2021/04/08 05:17:16;;;;;;;5.1;3.3;;;;;;;0.33;76.62988;95754.19;;;;
2021/04/08 05:18:16;;;;;;;5.1;3.3;;;;;;;0.33;76.62988;95754.19;;;;
2021/04/08 05:19:16;;;;;;;5.1;3.3;;;;;;;0.33;76.62988;95754.19;;;;
2021/04/08 05:20:17;;;;;;;5.1;3.3;;;;;;;0.33;76.62988;95754.19;;;;
2021/04/08 05:21:18;;;;;;;5.1;3.3;;;;;;;0.33;76.62988;95754.19;;;;
2021/04/08 05:22:18;;;;;;;6.4;3.75;;;;;;;0.48;76.60254;95764.11;;;;
2021/04/08 05:23:19;;;;;;;6.4;3.75;;;;;;;0.48;76.60254;95764.11;;;;
2021/04/08 05:24:19;;;;;;;6.4;3.75;;;;;;;0.48;76.60254;95764.11;;;;
2021/04/08 05:25:20;;;;;;;6.4;3.75;;;;;;;0.48;76.60254;95764.11;;;;
2021/04/08 05:26:20;;;;;;;6.4;3.75;;;;;;;0.48;76.60254;95764.11;;;;
2021/04/08 05:27:21;;;;;;;6.4;3.75;;;;;;;0.48;76.60254;95764.11;;;;
2021/04/08 05:28:21;;;;;;;6.4;3.75;;;;;;;0.48;76.60254;95764.11;;;;
2021/04/08 05:29:22;;;;;;;6.4;3.75;;;;;;;0.48;76.60254;95764.11;;;;
2021/04/08 05:30:22;;;;;;;6.4;3.75;;;;;;;0.48;76.60254;95764.11;;;;
2021/04/08 05:31:24;;;;;;;6.4;3.75;;;;;;;0.48;76.60254;95764.11;;;;
2021/04/08 05:32:24;;;;;;;6.150001;3.6;;;;;;;0.63;76.50684;95783.22;;;;
2021/04/08 05:33:25;;;;;;;6.150001;3.6;;;;;;;0.63;76.50684;95783.22;;;;
2021/04/08 05:34:25;;;;;;;6.150001;3.6;;;;;;;0.63;76.50684;95783.22;;;;
2021/04/08 05:35:26;;;;;;;6.150001;3.6;;;;;;;0.63;76.50684;95783.22;;;;
2021/04/08 05:36:27;;;;;;;6.150001;3.6;;;;;;;0.63;76.50684;95783.22;;;;
2021/04/08 05:37:27;;;;;;;6.150001;3.6;;;;;;;0.63;76.50684;95783.22;;;;
2021/04/08 05:38:28;;;;;;;6.150001;3.6;;;;;;;0.63;76.50684;95783.22;;;;
2021/04/08 05:39:29;;;;;;;6.150001;3.6;;;;;;;0.63;76.50684;95783.22;;;;
2021/04/08 05:40:29;;;;;;;6.150001;3.6;;;;;;;0.63;76.50684;95783.22;;;;
2021/04/08 05:41:30;;;;;;;6.150001;3.6;;;;;;;0.63;76.50684;95783.22;;;;
2021/04/08 05:42:31;;;;;;;6.150001;3.6;;;;;;;0.63;76.50684;95783.22;;;;
2021/04/08 05:43:32;;;;;;;6.5;3.7;;;;;;;0.83;76.33301;95789.48;;;;
2021/04/08 05:44:32;;;;;;;6.5;3.7;;;;;;;0.83;76.33301;95789.48;;;;
2021/04/08 05:45:33;;;;;;;6.5;3.7;;;;;;;0.83;76.33301;95789.48;;;;
2021/04/08 05:46:33;;;;;;;6.5;3.7;;;;;;;0.83;76.33301;95789.48;;;;
2021/04/08 05:47:34;;;;;;;6.5;3.7;;;;;;;0.83;76.33301;95789.48;;;;
2021/04/08 05:48:34;;;;;;;6.5;3.7;;;;;;;0.83;76.33301;95789.48;;;;
2021/04/08 05:49:35;;;;;;;6.5;3.7;;;;;;;0.83;76.33301;95789.48;;;;
2021/04/08 05:50:35;;;;;;;6.5;3.7;;;;;;;0.83;76.33301;95789.48;;;;
2021/04/08 05:51:36;;;;;;;6.5;3.7;;;;;;;0.83;76.33301;95789.48;;;;
2021/04/08 05:52:36;;;;;;;6.5;3.7;;;;;;;0.83;76.33301;95789.48;;;;
2021/04/08 05:53:37;;;;;;;6.5;3.7;;;;;;;0.83;76.33301;95789.48;;;;
2021/04/08 05:54:37;;;;;;;5.9;3.65;;;;;;;1.06;76.18652;95808.2;;;;
2021/04/08 05:55:38;;;;;;;5.9;3.65;;;;;;;1.06;76.18652;95808.2;;;;